Time;durP1;ratioP1;P1;durP2;ratioP2;P2;SDS_P1;SDS_P2;PMS_P1;PMS_P2;Temp;Humidity;BMP_temperature;BMP_pressure;BME280_temperature;BME280_humidity;BME280_pressure;Samples;Min_cycle;Max_cycle;Signal;HPM_P1;HPM_P2
2024/02/20 00:00:57;;;;;;;20.35;3.70;;;;;;;10.24;63.15;102727.38;4903195;28;124175;-82
2024/02/20 00:44:21;;;;;;;24.25;8.05;;;;;;;10.17;63.18;102731.00;5338628;23;99016;-81
2024/02/20 00:46:49;;;;;;;21.70;3.97;;;;;;;10.20;63.52;102741.53;4865580;29;114965;-82
2024/02/20 00:49:16;;;;;;;25.00;3.50;;;;;;;10.21;63.49;102732.72;4855126;29;123963;-82
2024/02/20 00:51:46;;;;;;;21.00;3.13;;;;;;;10.21;63.32;102726.53;4856659;29;124725;-82
2024/02/20 00:54:15;;;;;;;25.38;3.50;;;;;;;10.22;63.34;102729.16;4847585;29;115975;-82
2024/02/20 00:56:51;;;;;;;20.75;3.72;;;;;;;10.23;63.35;102733.56;4840658;29;114688;-82
2024/02/20 00:59:19;;;;;;;18.92;3.22;;;;;;;10.23;63.13;102730.94;4831146;29;124967;-82
2024/02/20 01:10:40;;;;;;;27.92;3.92;;;;;;;10.17;63.22;102754.84;4853643;28;123490;-82
2024/02/20 03:15:56;;;;;;;30.75;5.03;;;;;;;9.79;64.04;102761.44;4797808;29;121781;-71
2024/02/20 03:18:23;;;;;;;19.23;4.95;;;;;;;9.80;63.97;102762.34;4794021;29;123892;-70
2024/02/20 03:20:52;;;;;;;20.75;5.50;;;;;;;9.81;64.08;102764.06;4810803;29;114299;-71
2024/02/20 03:23:19;;;;;;;29.70;5.47;;;;;;;9.82;64.09;102761.41;4791820;29;114317;-71
2024/02/20 03:25:46;;;;;;;28.13;4.93;;;;;;;9.82;64.01;102756.13;4794391;29;123256;-71
2024/02/20 03:28:14;;;;;;;24.30;5.43;;;;;;;9.83;63.81;102765.84;4784411;29;123370;-70
2024/02/20 03:30:41;;;;;;;17.63;4.75;;;;;;;9.84;64.05;102759.63;4797645;29;113474;-71
2024/02/20 03:33:09;;;;;;;22.65;4.57;;;;;;;9.85;63.91;102761.41;4794015;29;114508;-70
2024/02/20 03:35:37;;;;;;;25.60;4.80;;;;;;;9.87;64.16;102764.91;4781725;29;124008;-71
2024/02/20 03:38:04;;;;;;;23.90;4.68;;;;;;;9.87;64.09;102759.59;4805058;29;123907;-70
2024/02/20 03:40:32;;;;;;;29.33;4.68;;;;;;;9.88;64.04;102756.03;4791329;29;114410;-70
2024/02/20 03:43:02;;;;;;;25.27;5.03;;;;;;;9.90;64.09;102759.56;4794885;29;113807;-71
2024/02/20 03:45:30;;;;;;;27.17;5.35;;;;;;;9.91;63.90;102758.66;4814407;29;123383;-71
2024/02/20 03:47:57;;;;;;;19.27;4.80;;;;;;;9.91;63.82;102761.31;4797137;29;122943;-71
2024/02/20 03:50:25;;;;;;;21.60;4.78;;;;;;;9.94;63.95;102761.28;4796982;29;115244;-71
2024/02/20 03:52:52;;;;;;;24.02;4.60;;;;;;;9.93;63.95;102754.22;4811918;29;115165;-71
2024/02/20 03:55:20;;;;;;;23.30;4.47;;;;;;;9.94;64.11;102756.00;4809098;29;124036;-71
2024/02/20 03:57:48;;;;;;;34.20;5.20;;;;;;;9.94;63.96;102750.72;4795482;29;122750;-71
2024/02/20 04:00:16;;;;;;;23.80;4.60;;;;;;;9.93;64.04;102759.53;4796442;29;114209;-71
2024/02/20 04:02:43;;;;;;;20.30;4.43;;;;;;;9.94;63.97;102750.72;4798685;29;114056;-71
2024/02/20 04:05:11;;;;;;;19.35;4.72;;;;;;;9.95;63.94;102748.94;4795156;29;124935;-71
2024/02/20 04:07:39;;;;;;;24.48;4.43;;;;;;;9.94;64.03;102750.72;4774225;29;123519;-71
2024/02/20 04:10:12;;;;;;;22.88;4.43;;;;;;;9.94;64.16;102745.41;4783543;29;113916;-70
2024/02/20 04:12:41;;;;;;;29.33;4.97;;;;;;;9.94;63.89;102740.13;4787579;29;113179;-71
2024/02/20 04:15:11;;;;;;;22.83;4.78;;;;;;;9.96;63.81;102741.84;4794768;29;124142;-71
2024/02/20 04:17:39;;;;;;;24.92;4.50;;;;;;;9.96;63.88;102741.84;4799228;29;124125;-71
2024/02/20 04:20:08;;;;;;;22.13;4.28;;;;;;;9.96;63.95;102736.56;4808149;29;114547;-70
2024/02/20 04:22:37;;;;;;;21.63;4.22;;;;;;;9.97;64.17;102733.03;4782116;29;113725;-70
2024/02/20 04:25:06;;;;;;;17.13;4.35;;;;;;;9.98;63.99;102737.41;4807514;29;124189;-70
2024/02/20 04:27:36;;;;;;;23.17;4.13;;;;;;;9.98;64.07;102734.78;4799399;29;123694;-70
2024/02/20 04:30:05;;;;;;;20.00;4.18;;;;;;;9.99;64.22;102731.25;4797926;29;114143;-70
2024/02/20 04:32:33;;;;;;;24.55;4.57;;;;;;;9.99;63.89;102736.53;4796435;29;113731;-70
2024/02/20 04:35:00;;;;;;;27.42;4.07;;;;;;;10.01;63.96;102740.03;4795345;29;123873;-70
2024/02/20 04:37:28;;;;;;;17.52;4.38;;;;;;;9.99;64.13;102725.94;4814161;29;123722;-70
2024/02/20 04:39:55;;;;;;;20.02;4.05;;;;;;;10.00;63.89;102725.03;4792913;29;115047;-70
2024/02/20 04:42:24;;;;;;;21.45;4.07;;;;;;;10.00;64.03;102732.97;4782488;29;115470;-71
2024/02/20 04:44:51;;;;;;;25.13;4.25;;;;;;;10.01;64.13;102734.75;4810392;29;123537;-71
2024/02/20 04:47:18;;;;;;;22.88;4.35;;;;;;;10.01;64.17;102740.03;4796097;29;124030;-71
2024/02/20 04:49:50;;;;;;;22.90;4.47;;;;;;;10.01;64.11;102734.75;4798193;29;113576;-71
2024/02/20 04:52:18;;;;;;;19.05;4.60;;;;;;;10.01;63.98;102742.69;4796285;29;114014;-71
2024/02/20 04:54:45;;;;;;;22.92;4.32;;;;;;;10.00;63.93;102732.97;4814724;29;122014;-71
2024/02/20 04:57:12;;;;;;;16.60;3.92;;;;;;;9.98;64.07;102732.13;4801227;29;123932;-71
2024/02/20 04:59:42;;;;;;;18.50;4.20;;;;;;;9.97;64.00;102727.75;4800376;29;114669;-71
2024/02/20 05:02:14;;;;;;;25.42;4.68;;;;;;;9.97;64.07;102735.69;4794443;29;114510;-71
2024/02/20 05:04:43;;;;;;;22.95;3.85;;;;;;;9.97;64.18;102733.03;4786232;29;122928;-71
2024/02/20 05:07:10;;;;;;;23.77;4.20;;;;;;;9.97;63.64;102733.03;4801216;29;124606;-71
2024/02/20 05:09:39;;;;;;;26.70;4.13;;;;;;;9.97;64.11;102733.03;4799297;29;114569;-71
2024/02/20 05:12:06;;;;;;;27.23;4.22;;;;;;;9.97;64.14;102733.03;4795844;29;114169;-71
2024/02/20 05:14:33;;;;;;;21.15;4.45;;;;;;;9.98;64.01;102724.19;4800519;29;124262;-71
2024/02/20 05:17:01;;;;;;;25.83;4.15;;;;;;;9.99;64.09;102728.59;4813264;29;123914;-71
2024/02/20 05:19:28;;;;;;;23.58;4.15;;;;;;;9.99;64.09;102731.25;4802682;29;113942;-71
2024/02/20 05:21:55;;;;;;;20.05;4.45;;;;;;;9.98;64.17;102726.81;4794052;29;114221;-71
2024/02/20 05:24:23;;;;;;;22.83;4.53;;;;;;;9.99;64.18;102725.94;4800577;29;123988;-71
2024/02/20 05:26:50;;;;;;;19.45;3.90;;;;;;;9.99;64.06;102732.09;4796616;29;123741;-71
2024/02/20 05:29:17;;;;;;;21.48;4.47;;;;;;;10.00;64.23;102733.88;4783850;29;114409;-71
2024/02/20 05:31:45;;;;;;;23.30;4.45;;;;;;;10.01;64.28;102740.03;4798996;29;115226;-71
2024/02/20 05:34:12;;;;;;;22.05;4.13;;;;;;;10.02;64.32;102736.47;4795868;29;123744;-71
2024/02/20 05:36:40;;;;;;;21.48;4.47;;;;;;;10.00;64.05;102739.16;4798340;29;123922;-71
2024/02/20 05:39:09;;;;;;;22.50;4.63;;;;;;;10.02;64.39;102742.66;4799714;29;113261;-74
2024/02/20 05:41:36;;;;;;;28.15;4.60;;;;;;;10.02;64.38;102741.78;4801221;29;113801;-71
2024/02/20 05:44:04;;;;;;;23.58;4.80;;;;;;;10.02;64.26;102741.78;4795805;29;124501;-71
2024/02/20 05:46:33;;;;;;;18.30;4.40;;;;;;;10.04;64.23;102734.69;4795851;29;124214;-71
2024/02/20 05:49:03;;;;;;;26.27;4.97;;;;;;;10.03;64.40;102739.13;4801212;29;114479;-71
2024/02/20 05:51:32;;;;;;;21.75;4.43;;;;;;;10.04;64.13;102739.97;4796904;29;114023;-71
2024/02/20 05:54:00;;;;;;;21.42;4.78;;;;;;;10.04;64.40;102735.59;4780227;29;123959;-72
2024/02/20 05:56:27;;;;;;;19.13;4.38;;;;;;;10.05;64.32;102736.44;4799583;29;124333;-72
2024/02/20 05:58:54;;;;;;;24.77;4.50;;;;;;;10.06;64.14;102732.94;4795937;29;114207;-72
2024/02/20 06:01:21;;;;;;;24.42;4.70;;;;;;;10.07;64.43;102732.00;4814032;29;114431;-72
2024/02/20 06:03:49;;;;;;;16.55;4.47;;;;;;;10.08;64.38;102733.78;4796682;29;124378;-71
2024/02/20 06:06:16;;;;;;;21.55;5.13;;;;;;;10.08;64.39;102736.44;4800103;29;123995;-71
2024/02/20 06:08:44;;;;;;;21.75;5.00;;;;;;;10.09;64.61;102738.16;4798289;29;114224;-71
2024/02/20 06:11:14;;;;;;;18.55;4.22;;;;;;;10.10;64.49;102737.28;4798701;29;114034;-71
2024/02/20 06:13:44;;;;;;;13.50;3.63;;;;;;;10.13;64.55;102734.56;4798181;29;123264;-71
2024/02/20 06:16:11;;;;;;;19.63;4.13;;;;;;;10.15;64.31;102732.78;4784132;29;122864;-71
2024/02/20 06:18:39;;;;;;;12.65;2.80;;;;;;;10.17;64.43;102735.41;4783083;29;115378;-71
2024/02/20 06:21:10;;;;;;;13.73;3.08;;;;;;;10.18;64.56;102737.19;4798674;29;115065;-71
2024/02/20 06:23:39;;;;;;;14.73;3.53;;;;;;;10.20;64.30;102733.59;4796885;29;123899;-71
2024/02/20 06:26:07;;;;;;;13.27;2.50;;;;;;;10.21;64.31;102738.03;4796886;29;123763;-72
2024/02/20 06:28:39;;;;;;;13.43;2.92;;;;;;;10.23;64.42;102736.22;4799645;29;114261;-72
2024/02/20 06:31:08;;;;;;;14.60;3.17;;;;;;;10.24;64.37;102735.31;4795065;29;114381;-71
2024/02/20 06:33:36;;;;;;;11.55;3.47;;;;;;;10.24;64.22;102735.31;4796987;29;123355;-71
2024/02/20 06:36:04;;;;;;;18.25;3.67;;;;;;;10.25;64.21;102729.13;4795168;29;124143;-71
2024/02/20 06:38:34;;;;;;;9.10;3.03;;;;;;;10.26;64.42;102730.88;4798501;29;114712;-71
2024/02/20 06:41:01;;;;;;;14.68;3.45;;;;;;;10.25;64.17;102723.84;4799420;29;113215;-71
2024/02/20 06:43:29;;;;;;;13.75;3.30;;;;;;;10.27;64.31;102722.03;4796538;29;124701;-72
2024/02/20 06:45:57;;;;;;;16.95;3.38;;;;;;;10.28;64.39;102729.09;4797213;29;123675;-70
2024/02/20 06:48:24;;;;;;;13.52;3.55;;;;;;;10.29;64.40;102724.69;4796116;29;115303;-71
2024/02/20 06:51:03;;;;;;;13.48;3.00;;;;;;;10.30;64.13;102727.34;4794798;29;114918;-73
2024/02/20 06:53:35;;;;;;;11.25;3.10;;;;;;;10.30;64.34;102727.34;4803334;29;125195;-72
2024/02/20 06:56:03;;;;;;;14.27;3.88;;;;;;;10.31;64.44;102737.03;4798119;29;123988;-72
2024/02/20 06:58:30;;;;;;;11.57;3.28;;;;;;;10.31;64.14;102734.38;4814694;29;113245;-72
2024/02/20 07:00:58;;;;;;;11.30;3.33;;;;;;;10.31;64.37;102734.38;4791219;29;114953;-72
2024/02/20 07:03:25;;;;;;;10.38;3.15;;;;;;;10.32;64.18;102736.13;4813857;29;124153;-72
2024/02/20 07:05:54;;;;;;;9.70;3.42;;;;;;;10.35;64.34;102734.34;4797372;29;124609;-71
2024/02/20 07:08:22;;;;;;;9.35;3.30;;;;;;;10.34;64.42;102738.78;4793532;29;114788;-72
2024/02/20 07:10:49;;;;;;;13.50;3.60;;;;;;;10.35;64.30;102745.81;4810669;29;113959;-71
2024/02/20 07:13:20;;;;;;;11.68;3.53;;;;;;;10.35;64.35;102751.09;4798417;29;124021;-72
2024/02/20 07:15:47;;;;;;;13.07;3.78;;;;;;;10.36;64.37;102744.03;4793984;29;123593;-72
2024/02/20 07:18:14;;;;;;;14.65;3.55;;;;;;;10.36;64.43;102747.56;4795430;29;114312;-71
2024/02/20 07:20:42;;;;;;;10.82;3.47;;;;;;;10.37;64.14;102753.72;4795698;29;113608;-72
2024/02/20 07:23:09;;;;;;;12.30;3.33;;;;;;;10.37;64.37;102759.03;4796685;29;124358;-72
2024/02/20 07:25:37;;;;;;;13.88;4.13;;;;;;;10.38;64.35;102766.06;4796378;29;123959;-72
2024/02/20 07:28:06;;;;;;;18.92;4.35;;;;;;;10.41;64.14;102771.34;4796517;29;114577;-72
2024/02/20 07:30:33;;;;;;;10.02;3.50;;;;;;;10.44;64.24;102773.94;4798168;29;113294;-72
2024/02/20 07:33:01;;;;;;;11.90;3.53;;;;;;;10.45;64.31;102773.94;4795685;29;124170;-73
2024/02/20 07:35:28;;;;;;;11.10;3.30;;;;;;;10.46;64.14;102774.81;4798966;29;124212;-74
2024/02/20 07:37:56;;;;;;;10.90;3.85;;;;;;;10.49;64.29;102774.75;4796012;29;114797;-75
2024/02/20 07:40:23;;;;;;;13.10;3.63;;;;;;;10.51;64.30;102770.34;4800714;29;113188;-75
2024/02/20 07:42:51;;;;;;;11.40;3.72;;;;;;;10.52;64.41;102772.06;4797878;29;124277;-74
2024/02/20 07:45:18;;;;;;;16.80;4.30;;;;;;;10.55;64.28;102769.38;4799811;29;123700;-74
2024/02/20 07:47:46;;;;;;;15.18;4.28;;;;;;;10.58;64.14;102769.31;4801452;29;113520;-74
2024/02/20 07:50:14;;;;;;;15.27;4.60;;;;;;;10.61;64.44;102769.28;4786701;29;113953;-74
2024/02/20 07:52:45;;;;;;;12.90;4.38;;;;;;;10.64;64.47;102769.25;4787524;29;123261;-74
2024/02/20 07:55:13;;;;;;;10.63;4.60;;;;;;;10.69;64.50;102772.69;4794339;29;123458;-74
2024/02/20 07:57:42;;;;;;;13.23;4.50;;;;;;;10.73;64.36;102762.94;4790204;29;115586;-74
2024/02/20 08:00:12;;;;;;;15.15;4.18;;;;;;;10.79;64.30;102761.97;4795613;29;114470;-74
2024/02/20 08:02:40;;;;;;;17.40;4.60;;;;;;;10.82;64.31;102753.97;4794653;29;124055;-74
2024/02/20 08:05:10;;;;;;;15.82;4.60;;;;;;;10.88;64.56;102745.91;4807001;29;123420;-74
2024/02/20 08:07:38;;;;;;;17.40;4.20;;;;;;;10.93;64.53;102754.69;4796157;29;115088;-74
2024/02/20 08:10:08;;;;;;;13.48;4.03;;;;;;;10.98;64.36;102752.84;4788883;29;114039;-74
2024/02/20 08:12:35;;;;;;;18.95;4.80;;;;;;;11.02;64.53;102751.88;4783926;29;122972;-74
2024/02/20 08:15:03;;;;;;;11.35;4.03;;;;;;;11.06;64.40;102750.94;4798147;29;124015;-74
2024/02/20 08:17:30;;;;;;;12.15;3.83;;;;;;;11.08;64.31;102749.13;4784677;29;113552;-73
2024/02/20 08:19:59;;;;;;;14.02;3.95;;;;;;;11.12;64.26;102755.25;4795443;29;114646;-74
2024/02/20 08:22:26;;;;;;;12.27;3.85;;;;;;;11.17;64.30;102747.22;4796233;29;124008;-74
2024/02/20 08:24:56;;;;;;;10.00;3.78;;;;;;;11.18;64.41;102755.16;4795478;29;123398;-73
2024/02/20 08:27:24;;;;;;;15.65;4.30;;;;;;;11.22;64.26;102750.66;4799977;29;114419;-74
2024/02/20 08:29:52;;;;;;;17.02;4.82;;;;;;;11.25;64.27;102750.63;4788348;29;113583;-73
2024/02/20 08:32:19;;;;;;;9.63;3.80;;;;;;;11.26;64.34;102747.97;4798142;29;124777;-74
2024/02/20 08:34:46;;;;;;;17.13;3.80;;;;;;;11.30;64.21;102748.75;4801398;29;123397;-74
2024/02/20 08:37:14;;;;;;;13.38;3.75;;;;;;;11.33;64.18;102743.41;4808884;29;113035;-74
2024/02/20 08:39:43;;;;;;;13.35;3.70;;;;;;;11.34;64.18;102745.16;4796571;29;114024;-74
2024/02/20 08:42:11;;;;;;;12.50;4.00;;;;;;;11.35;64.10;102746.91;4780117;29;124299;-73
2024/02/20 08:44:38;;;;;;;12.68;5.03;;;;;;;11.39;64.28;102743.28;4788594;29;124052;-73
2024/02/20 08:47:06;;;;;;;13.48;4.20;;;;;;;11.40;64.28;102745.06;4812715;29;115149;-74
2024/02/20 08:49:34;;;;;;;15.18;4.53;;;;;;;11.44;64.30;102756.50;4816073;29;115413;-73
2024/02/20 08:52:01;;;;;;;13.60;4.72;;;;;;;11.49;64.29;102766.13;4790521;29;123968;-74
2024/02/20 08:54:30;;;;;;;12.45;4.70;;;;;;;11.54;64.26;102762.50;4767808;29;123623;-74
2024/02/20 08:56:57;;;;;;;15.50;4.70;;;;;;;11.57;64.52;102767.75;4792861;29;114795;-74
2024/02/20 08:59:24;;;;;;;21.83;5.20;;;;;;;11.63;64.12;102767.63;4798675;29;113808;-74
2024/02/20 09:01:52;;;;;;;16.00;5.05;;;;;;;11.67;64.36;102774.63;4810024;29;123701;-73
2024/02/20 09:04:19;;;;;;;17.95;5.82;;;;;;;11.73;64.20;102779.81;4795342;29;124345;-74
2024/02/20 09:06:47;;;;;;;20.40;5.93;;;;;;;11.77;64.27;102768.25;4788992;29;113788;-74
2024/02/20 09:09:16;;;;;;;17.33;6.25;;;;;;;11.80;64.43;102765.53;4807650;29;113191;-74
2024/02/20 09:11:43;;;;;;;17.02;5.90;;;;;;;11.85;64.43;102774.28;4797048;29;123557;-74
2024/02/20 09:14:12;;;;;;;17.20;6.03;;;;;;;11.90;64.28;102782.19;4798170;29;124471;-74
2024/02/20 09:16:39;;;;;;;16.52;5.80;;;;;;;11.95;64.36;102779.47;4784594;29;112560;-74
2024/02/20 09:19:08;;;;;;;14.85;6.00;;;;;;;12.00;64.75;102772.28;4800227;29;113478;-73
2024/02/20 09:21:36;;;;;;;18.55;5.60;;;;;;;12.07;64.22;102773.88;4792746;29;124221;-74
2024/02/20 09:24:04;;;;;;;19.52;5.97;;;;;;;12.11;64.34;102770.28;4813548;29;123632;-74
2024/02/20 09:26:32;;;;;;;21.88;6.57;;;;;;;12.15;64.26;102777.28;4805406;29;114016;-73
2024/02/20 09:29:01;;;;;;;18.98;6.05;;;;;;;12.17;64.14;102764.84;4797018;29;112888;-73
2024/02/20 09:31:28;;;;;;;16.88;5.97;;;;;;;12.18;64.15;102769.22;4789584;29;124516;-74
2024/02/20 09:33:57;;;;;;;19.67;5.95;;;;;;;12.19;64.00;102771.00;4798006;29;124228;-74
2024/02/20 09:36:25;;;;;;;17.98;5.78;;;;;;;12.20;64.57;102778.03;4797924;29;115100;-74
2024/02/20 09:38:54;;;;;;;25.40;6.10;;;;;;;12.22;63.87;102768.28;4822464;29;114612;-74
2024/02/20 09:41:23;;;;;;;21.45;6.82;;;;;;;12.26;63.97;102767.31;4802812;29;123970;-74
2024/02/20 09:43:51;;;;;;;18.65;6.93;;;;;;;12.27;63.85;102771.69;4802091;29;124455;-74
2024/02/20 09:46:20;;;;;;;18.75;6.63;;;;;;;12.29;63.96;102762.84;4804963;29;114219;-73
2024/02/20 09:48:49;;;;;;;20.40;7.25;;;;;;;12.31;63.88;102755.69;4806537;29;113089;-74
2024/02/20 09:51:19;;;;;;;16.58;6.22;;;;;;;12.33;63.92;102764.50;4789043;29;123880;-74
2024/02/20 09:53:49;;;;;;;23.00;6.97;;;;;;;12.36;63.95;102764.47;4800151;29;124605;-73
2024/02/20 09:56:18;;;;;;;18.95;6.75;;;;;;;12.40;64.00;102760.81;4802638;29;114815;-73
2024/02/20 09:58:47;;;;;;;20.73;7.32;;;;;;;12.43;63.84;102766.03;4802642;29;114401;-74
2024/02/20 10:01:15;;;;;;;16.60;6.55;;;;;;;12.47;63.81;102773.06;4802461;29;124373;-73
2024/02/20 10:03:44;;;;;;;18.48;6.95;;;;;;;12.50;64.01;102767.66;4800389;29;124736;-74
2024/02/20 10:06:14;;;;;;;18.17;7.10;;;;;;;12.58;63.89;102776.38;4816248;29;113602;-74
2024/02/20 10:08:42;;;;;;;17.95;7.35;;;;;;;12.64;64.02;102770.91;4797762;29;114135;-73
2024/02/20 10:11:09;;;;;;;18.88;7.43;;;;;;;12.72;64.03;102764.53;4793462;29;123254;-74
2024/02/20 10:13:44;;;;;;;19.55;7.43;;;;;;;12.80;63.97;102757.25;4784966;29;123605;-74
2024/02/20 10:16:16;;;;;;;;;;;;;;;12.86;64.16;102751.78;4786291;29;113437;-73
2024/02/20 10:18:44;;;;;;;17.63;6.88;;;;;;;12.97;63.84;102765.69;4796468;29;114081;-74
2024/02/20 10:21:14;;;;;;;18.77;6.82;;;;;;;13.02;63.90;102755.81;4793197;29;124420;-74
2024/02/20 10:23:41;;;;;;;19.90;6.65;;;;;;;13.11;63.82;102759.16;4814403;29;123346;-74
2024/02/20 10:26:11;;;;;;;13.00;6.80;;;;;;;13.15;63.75;102755.53;4787122;29;115579;-74
2024/02/20 10:28:39;;;;;;;16.73;6.18;;;;;;;13.21;63.70;102750.03;4794420;29;114208;-74
2024/02/20 10:31:08;;;;;;;18.52;6.90;;;;;;;13.27;64.17;102749.88;4794614;29;123859;-74
2024/02/20 10:33:37;;;;;;;21.52;7.40;;;;;;;13.33;63.95;102747.09;4785336;29;123710;-74
2024/02/20 10:36:06;;;;;;;17.67;6.28;;;;;;;13.39;63.67;102741.63;4808793;29;113470;-73
2024/02/20 10:38:33;;;;;;;17.67;6.80;;;;;;;13.44;63.58;102726.38;4791539;29;114521;-74
2024/02/20 10:41:01;;;;;;;18.73;6.45;;;;;;;13.48;63.28;102737.81;4790850;29;123741;-74
2024/02/20 10:43:29;;;;;;;19.92;5.95;;;;;;;13.51;63.34;102731.56;4797169;29;123549;-74
2024/02/20 10:45:58;;;;;;;20.10;5.70;;;;;;;13.54;63.35;102735.03;4808402;29;114255;-73
2024/02/20 10:48:28;;;;;;;20.23;6.72;;;;;;;13.55;63.40;102727.91;4793191;29;114497;-74
2024/02/20 10:50:58;;;;;;;18.60;6.05;;;;;;;13.58;63.23;102733.13;4800901;29;123963;-74
2024/02/20 10:53:27;;;;;;;17.13;5.63;;;;;;;13.61;62.97;102722.41;4786214;29;122653;-74
2024/02/20 10:55:56;;;;;;;16.02;5.40;;;;;;;13.63;63.03;102717.91;4794712;29;113922;-74
2024/02/20 10:58:27;;;;;;;14.25;5.82;;;;;;;13.66;62.96;102716.97;4790885;29;114530;-73
2024/02/20 11:00:55;;;;;;;17.92;5.47;;;;;;;13.69;62.90;102719.50;4798088;29;123674;-73
2024/02/20 11:03:24;;;;;;;15.82;4.90;;;;;;;13.71;62.91;102729.22;4799469;29;123185;-73
2024/02/20 11:05:52;;;;;;;19.90;5.40;;;;;;;13.76;62.82;102721.09;4799270;29;114071;-73
2024/02/20 11:08:28;;;;;;;19.73;5.25;;;;;;;13.79;62.80;102713.91;4801072;29;114842;-72
2024/02/20 11:11:14;;;;;;;17.02;4.60;;;;;;;13.81;62.84;102714.72;4795157;29;124160;-73
2024/02/20 11:13:42;;;;;;;18.42;4.65;;;;;;;13.85;62.70;102719.97;4793653;29;122922;-73
2024/02/20 11:16:14;;;;;;;16.30;4.32;;;;;;;13.83;62.38;102715.53;4786005;29;115488;-73
2024/02/20 11:18:54;;;;;;;16.27;4.35;;;;;;;13.83;62.41;102702.22;4814290;29;114551;-73
2024/02/20 11:21:27;;;;;;;15.02;3.58;;;;;;;13.84;62.32;102697.78;4809237;29;124215;-73
2024/02/20 11:23:55;;;;;;;13.10;4.18;;;;;;;13.85;62.31;102693.34;4793729;29;124350;-72
2024/02/20 11:26:33;;;;;;;15.40;4.28;;;;;;;13.85;62.18;102678.22;4795333;29;114689;-73
2024/02/20 11:29:00;;;;;;;11.68;4.20;;;;;;;13.88;62.17;102685.25;4796672;29;114268;-73
2024/02/20 11:31:29;;;;;;;11.48;3.78;;;;;;;13.90;62.33;102675.41;4807192;29;124328;-74
2024/02/20 11:33:57;;;;;;;20.70;4.53;;;;;;;13.93;62.16;102675.31;4782692;29;122533;-73
2024/02/20 11:36:25;;;;;;;17.40;4.35;;;;;;;13.97;62.08;102672.50;4797097;29;114318;-73
2024/02/20 11:39:08;;;;;;;16.40;4.15;;;;;;;14.02;62.18;102664.41;4797375;29;113109;-73
2024/02/20 11:41:36;;;;;;;14.25;4.10;;;;;;;14.08;62.19;102663.34;4794401;29;123923;-73
2024/02/20 11:44:11;;;;;;;14.85;4.22;;;;;;;14.13;62.12;102667.59;4794367;29;122185;-72
2024/02/20 11:46:39;;;;;;;14.00;4.18;;;;;;;14.21;62.28;102659.38;4792471;29;114236;-73
2024/02/20 11:49:06;;;;;;;12.40;3.75;;;;;;;14.27;62.04;102647.66;4792389;29;113844;-73
2024/02/20 11:51:33;;;;;;;15.30;4.10;;;;;;;14.30;61.81;102642.22;4803233;29;123512;-73
2024/02/20 11:54:05;;;;;;;16.83;3.85;;;;;;;14.32;61.72;102648.38;4793554;29;124243;-73
2024/02/20 11:56:33;;;;;;;12.48;3.78;;;;;;;14.37;61.71;102646.41;4797138;29;114659;-74
2024/02/20 11:59:02;;;;;;;16.23;4.00;;;;;;;14.40;61.37;102644.53;4796660;29;113246;-73
2024/02/20 12:01:31;;;;;;;13.05;4.57;;;;;;;14.44;61.45;102645.31;4787168;29;124397;-73
2024/02/20 12:04:06;;;;;;;13.00;3.47;;;;;;;14.48;61.49;102630.94;4791912;29;123198;-73
2024/02/20 12:06:35;;;;;;;11.82;3.50;;;;;;;14.56;61.47;102639.59;4788050;29;115286;-73
2024/02/20 12:09:03;;;;;;;10.38;3.38;;;;;;;14.64;61.36;102635.84;4788618;29;115127;-73
2024/02/20 12:11:31;;;;;;;13.82;3.60;;;;;;;14.70;61.23;102635.63;4788581;29;124079;-72
2024/02/20 12:13:59;;;;;;;11.45;3.28;;;;;;;14.73;61.25;102630.16;4797022;29;123546;-72
2024/02/20 12:16:30;;;;;;;13.90;3.88;;;;;;;14.78;61.30;102628.22;4806197;29;113269;-72
2024/02/20 12:18:58;;;;;;;13.43;3.92;;;;;;;14.83;61.13;102620.94;4791788;29;114646;-72
2024/02/20 12:21:31;;;;;;;16.02;3.72;;;;;;;14.90;61.09;102617.16;4807117;29;123615;-73
2024/02/20 12:24:03;;;;;;;13.35;3.63;;;;;;;14.94;61.07;102613.44;4793358;29;123705;-72
2024/02/20 12:26:30;;;;;;;13.68;3.45;;;;;;;14.99;60.82;102611.50;4792658;29;113249;-72
2024/02/20 12:28:58;;;;;;;21.30;4.43;;;;;;;15.03;60.76;102606.03;4796892;29;114732;-72
2024/02/20 12:31:30;;;;;;;12.57;3.88;;;;;;;15.08;60.70;102599.59;4795043;29;124864;-72
2024/02/20 12:33:59;;;;;;;15.10;4.13;;;;;;;15.13;60.79;102596.78;4792382;29;124358;-72
2024/02/20 12:36:29;;;;;;;11.57;3.33;;;;;;;15.18;60.93;102586.78;4797671;29;113852;-72
2024/02/20 12:38:59;;;;;;;16.15;3.75;;;;;;;15.21;60.59;102589.34;4792760;29;114370;-72
2024/02/20 12:41:27;;;;;;;16.23;3.88;;;;;;;15.26;60.48;102582.06;4784292;29;123829;-72
2024/02/20 12:43:57;;;;;;;14.07;3.78;;;;;;;15.31;60.36;102577.44;4809062;29;123881;-72
2024/02/20 12:46:24;;;;;;;11.02;3.63;;;;;;;15.35;60.28;102571.03;4806932;29;114598;-73
2024/02/20 12:48:53;;;;;;;11.35;3.25;;;;;;;15.40;60.28;102567.31;4796315;29;113831;-73
2024/02/20 12:51:23;;;;;;;12.57;3.60;;;;;;;15.45;60.16;102560.00;4792422;29;124437;-72
2024/02/20 12:53:52;;;;;;;13.68;3.88;;;;;;;15.47;59.87;102563.50;4791498;29;124247;-72
2024/02/20 12:56:20;;;;;;;17.90;3.47;;;;;;;15.49;59.91;102545.59;4794504;29;115908;-73
2024/02/20 12:58:51;;;;;;;14.15;3.25;;;;;;;15.51;59.80;102543.75;4792841;29;114964;-73
2024/02/20 13:01:19;;;;;;;12.07;3.38;;;;;;;15.52;59.63;102540.13;4783422;29;123337;-72
2024/02/20 13:03:48;;;;;;;11.77;3.78;;;;;;;15.53;59.42;102547.22;4813254;29;122967;-72
2024/02/20 13:06:16;;;;;;;12.05;2.78;;;;;;;15.57;59.41;102548.84;4799514;29;114133;-72
2024/02/20 13:08:43;;;;;;;18.70;3.45;;;;;;;15.57;59.29;102543.50;4797817;29;113519;-72
2024/02/20 13:11:14;;;;;;;10.65;3.17;;;;;;;15.57;59.14;102543.50;4796236;29;123739;-73
2024/02/20 13:13:45;;;;;;;15.27;3.17;;;;;;;15.54;58.90;102532.97;4796559;29;123928;-72
2024/02/20 13:16:12;;;;;;;13.18;2.90;;;;;;;15.52;59.05;102535.69;4802227;29;114970;-72
2024/02/20 13:18:40;;;;;;;13.15;2.80;;;;;;;15.51;58.78;102533.06;4802598;29;113952;-72
2024/02/20 13:21:08;;;;;;;14.20;3.00;;;;;;;15.50;58.65;102531.31;4799399;29;124350;-72
2024/02/20 13:23:36;;;;;;;15.52;2.92;;;;;;;15.48;58.93;102530.50;4798174;29;123095;-72
2024/02/20 13:26:03;;;;;;;15.13;3.58;;;;;;;15.51;58.92;102530.41;4793102;29;114321;-73
2024/02/20 13:28:31;;;;;;;13.75;3.72;;;;;;;15.53;59.05;102512.50;4798248;29;113311;-73
2024/02/20 13:30:58;;;;;;;10.85;3.30;;;;;;;15.54;58.79;102517.78;4811587;29;123197;-72
2024/02/20 13:33:26;;;;;;;15.68;3.80;;;;;;;15.56;58.69;102509.72;4791462;29;123711;-73
2024/02/20 13:35:54;;;;;;;14.57;2.72;;;;;;;15.58;58.69;102516.75;4797270;29;115180;-73
2024/02/20 13:38:21;;;;;;;15.20;3.38;;;;;;;15.59;58.50;102517.59;4798044;29;113433;-72
2024/02/20 13:40:51;;;;;;;13.00;3.33;;;;;;;15.59;58.57;102509.59;4806592;29;124306;-72
2024/02/20 13:43:19;;;;;;;10.02;2.35;;;;;;;15.57;58.27;102501.63;4799969;29;123523;-72
2024/02/20 13:45:49;;;;;;;11.63;2.33;;;;;;;15.55;58.32;102497.28;4800352;29;115898;-72
2024/02/20 13:48:18;;;;;;;13.20;2.83;;;;;;;15.56;58.36;102488.38;4799198;29;115441;-72
2024/02/20 13:50:47;;;;;;;14.10;3.10;;;;;;;15.57;58.41;102485.59;4799024;29;124361;-72
2024/02/20 13:53:16;;;;;;;8.50;2.40;;;;;;;15.60;58.26;102473.94;4794658;29;124219;-72
2024/02/20 13:55:47;;;;;;;10.98;2.65;;;;;;;15.66;58.43;102473.69;4792347;29;114243;-72
2024/02/20 13:58:15;;;;;;;15.43;2.33;;;;;;;15.71;58.35;102461.03;4801569;29;113705;-72
2024/02/20 14:00:47;;;;;;;9.68;2.72;;;;;;;15.76;58.15;102467.09;4795820;29;125213;-72
2024/02/20 14:03:20;;;;;;;11.65;2.17;;;;;;;15.82;58.19;102452.59;4789588;29;124242;-72
2024/02/20 14:05:47;;;;;;;11.45;2.35;;;;;;;15.88;58.20;102462.16;4809494;29;114257;-72
2024/02/20 14:08:15;;;;;;;11.80;2.35;;;;;;;15.93;58.07;102455.69;4796969;29;114003;-73
2024/02/20 14:10:44;;;;;;;9.93;2.20;;;;;;;15.95;57.91;102447.59;4802474;29;124351;-72